CYNL

SPECI CYNL 280005Z AUTO 26004KT 9SM FEW006 SCT017 BKN045 14/13 A2983 RMK AO1 PRESRR SLP097
SPECI
LOCATION
CYNL
DATE - TIME
280005Z
WIND
260 TRUE @ 4 KNOTS
VISIBILITY
9SM
RUNWAY VISUAL RANGE
NOT REPORTED
WEATHER
CLOUDINESS
FEW006 SCT017 BKN045
TEMP / DEWPOINT
14 ºC / 13 ºC
ALTIMETER
29.83 in. Hg
RECENT WEATHER
NOT REPORTED
WIND SHEAR
NOT REPORTED
REMARKS
RMK AO1 PRESRR SLP097
SEA LEVEL PRESSURE: hPa

CYNL

METAR CYNL 280000Z AUTO 26004KT 9SM SCT010 BKN034 BKN074 14/13 A2983 RMK AO1 PRESRR SLP096
METAR
LOCATION
CYNL
DATE - TIME
280000Z
WIND
260 TRUE @ 4 KNOTS
VISIBILITY
9SM
RUNWAY VISUAL RANGE
NOT REPORTED
WEATHER
CLOUDINESS
SCT010 BKN034 BKN074
TEMP / DEWPOINT
14 ºC / 13 ºC
ALTIMETER
29.83 in. Hg
RECENT WEATHER
NOT REPORTED
WIND SHEAR
NOT REPORTED
REMARKS
RMK AO1 PRESRR SLP096
SEA LEVEL PRESSURE: hPa

CYNL

SPECI CYNL 272359Z AUTO 26003KT 9SM FEW006 SCT015 BKN030 14/13 A2983 RMK AO1 PRESRR SLP097
SPECI
LOCATION
CYNL
DATE - TIME
272359Z
WIND
260 TRUE @ 3 KNOTS
VISIBILITY
9SM
RUNWAY VISUAL RANGE
NOT REPORTED
WEATHER
CLOUDINESS
FEW006 SCT015 BKN030
TEMP / DEWPOINT
14 ºC / 13 ºC
ALTIMETER
29.83 in. Hg
RECENT WEATHER
NOT REPORTED
WIND SHEAR
NOT REPORTED
REMARKS
RMK AO1 PRESRR SLP097
SEA LEVEL PRESSURE: hPa

Your time UTC time
 
 
Weather data provided by AXYS Technologies Inc., www.axystechnologies.com
 
Station History